createdAt,value
2019-02-09T00:00:19.283Z,2.7
2019-02-09T00:02:18.662Z,3.2
2019-02-09T00:04:19.336Z,3.4
2019-02-09T00:06:18.612Z,3.6
2019-02-09T00:08:19.288Z,2.5
2019-02-09T00:10:18.507Z,2
2019-02-09T00:12:19.184Z,2.7
2019-02-09T00:14:18.814Z,2.4
2019-02-09T00:16:19.109Z,1.7
2019-02-09T00:18:18.851Z,3
2019-02-09T00:20:18.568Z,2.5
2019-02-09T00:22:19.235Z,2.6
2019-02-09T00:24:18.917Z,3.1
2019-02-09T00:26:18.794Z,2.4
2019-02-09T00:28:18.444Z,2
2019-02-09T00:30:19.144Z,1.9
2019-02-09T00:32:18.823Z,2.2
2019-02-09T00:34:18.495Z,2
2019-02-09T00:36:18.637Z,1.9
2019-02-09T00:38:19.291Z,1.6
2019-02-09T00:40:18.465Z,2
2019-02-09T00:42:19.145Z,1.9
2019-02-09T00:44:18.837Z,2.3
2019-02-09T00:46:19.358Z,2.3
2019-02-09T00:48:19.057Z,2
2019-02-09T00:50:18.761Z,1.8
2019-02-09T00:52:19.456Z,1.8
2019-02-09T00:54:19.147Z,2.4
2019-02-09T00:56:18.466Z,2.4
2019-02-09T00:58:19.187Z,2.6
2019-02-09T01:00:18.862Z,1.4
2019-02-09T01:02:18.530Z,1.7
2019-02-09T01:04:19.236Z,1.4
2019-02-09T01:06:18.538Z,2.1
2019-02-09T01:08:19.242Z,1.6
2019-02-09T01:10:19.389Z,2
2019-02-09T01:12:19.098Z,2.4
2019-02-09T01:14:18.782Z,1.5
2019-02-09T01:16:18.620Z,1.5
2019-02-09T01:18:19.376Z,1.8
2019-02-09T01:20:19.085Z,2.5
2019-02-09T01:22:18.773Z,2.2
2019-02-09T01:24:19.441Z,2
2019-02-09T01:26:19.338Z,2
2019-02-09T01:28:19.062Z,1.5
2019-02-09T01:30:18.768Z,1.7
2019-02-09T01:32:19.432Z,2
2019-02-09T01:34:19.108Z,1.8
2019-02-09T01:36:19.022Z,1.6
2019-02-09T01:38:18.720Z,1.3
2019-02-09T01:40:18.909Z,1.8
2019-02-09T01:42:18.567Z,2
2019-02-09T01:44:19.242Z,1.7
2019-02-09T01:46:18.579Z,1.5
2019-02-09T01:48:19.253Z,1.7
2019-02-09T01:50:18.953Z,2.2
2019-02-09T01:52:18.619Z,1.5
2019-02-09T01:54:19.306Z,1.6
2019-02-09T01:56:19.229Z,1.9
2019-02-09T01:58:18.918Z,1.4
2019-02-09T02:00:18.636Z,2.3
2019-02-09T02:02:19.287Z,1.3
2019-02-09T02:04:18.977Z,1.3
2019-02-09T02:06:19.403Z,1.6
2019-02-09T02:08:19.072Z,1.9
2019-02-09T02:10:19.205Z,2.1
2019-02-09T02:12:18.861Z,1.7
2019-02-09T02:14:18.550Z,1.7
2019-02-09T02:16:18.476Z,1.5
2019-02-09T02:18:19.204Z,1.3
2019-02-09T02:20:18.885Z,1.7
2019-02-09T02:22:18.593Z,1.2
2019-02-09T02:24:19.282Z,1.8
2019-02-09T02:26:18.637Z,1.1
2019-02-09T02:28:19.296Z,1.4
2019-02-09T02:30:22.286Z,1.8
2019-02-09T02:32:18.905Z,1.7
2019-02-09T02:34:18.583Z,1.4
2019-02-09T02:36:18.962Z,2.1
2019-02-09T02:38:18.653Z,1.1
2019-02-09T02:40:19.032Z,1
2019-02-09T02:42:18.683Z,1.7
2019-02-09T02:44:19.345Z,0.9
2019-02-09T02:46:18.841Z,1.5
2019-02-09T02:48:18.499Z,1
2019-02-09T02:50:19.188Z,1
2019-02-09T02:52:18.901Z,1.2
2019-02-09T02:54:18.622Z,1.2
2019-02-09T02:56:18.964Z,1
2019-02-09T02:58:18.647Z,1.2
2019-02-09T03:00:19.356Z,1.4
2019-02-09T03:02:19.017Z,1
2019-02-09T03:04:18.690Z,0.9
2019-02-09T03:06:18.491Z,1
2019-02-09T03:08:19.142Z,1.1
2019-02-09T03:10:19.326Z,0.6
2019-02-09T03:12:18.997Z,0.7
2019-02-09T03:14:18.667Z,1.1
2019-02-09T03:16:18.992Z,0.9
2019-02-09T03:18:18.740Z,0.9
2019-02-09T03:20:19.405Z,1.1
2019-02-09T03:22:19.094Z,0.9
2019-02-09T03:24:18.735Z,1.5
2019-02-09T03:26:19.043Z,1.3
2019-02-09T03:28:18.696Z,1.4
2019-02-09T03:30:19.385Z,1.1
2019-02-09T03:32:19.143Z,0.9
2019-02-09T03:34:18.835Z,0.6
2019-02-09T03:36:18.769Z,0.9
2019-02-09T03:38:19.433Z,0.9
2019-02-09T03:40:18.613Z,0.8
2019-02-09T03:42:19.309Z,0.9
2019-02-09T03:44:18.998Z,1.2
2019-02-09T03:46:19.302Z,0.7
2019-02-09T03:48:18.976Z,1.3
2019-02-09T03:50:18.681Z,1
2019-02-09T03:52:19.344Z,1
2019-02-09T03:54:19.010Z,0.8
2019-02-09T03:56:18.847Z,1.3
2019-02-09T03:58:18.611Z,0.9
2019-02-09T04:00:19.515Z,0.8
2019-02-09T04:02:19.188Z,1.3
2019-02-09T04:04:18.863Z,0.9
2019-02-09T04:06:19.252Z,1.1
2019-02-09T04:08:18.965Z,1.1
2019-02-09T04:10:19.156Z,1
2019-02-09T04:12:18.824Z,0.6
2019-02-09T04:14:18.514Z,0.7
2019-02-09T04:16:18.891Z,1
2019-02-09T04:18:18.640Z,1
2019-02-09T04:20:19.306Z,0.8
2019-02-09T04:22:18.975Z,0.8
2019-02-09T04:24:18.656Z,1
2019-02-09T04:26:18.966Z,0.6
2019-02-09T04:28:18.627Z,1
2019-02-09T04:30:19.286Z,0.7
2019-02-09T04:32:18.959Z,0.9
2019-02-09T04:34:18.615Z,0.6
2019-02-09T04:36:18.454Z,0.8
2019-02-09T04:38:19.199Z,0.6
2019-02-09T04:40:19.359Z,0.6
2019-02-09T04:42:19.035Z,0.9
2019-02-09T04:44:18.686Z,1.2
2019-02-09T04:46:18.701Z,1
2019-02-09T04:48:19.364Z,0.9
2019-02-09T04:50:19.030Z,0.7
2019-02-09T04:52:18.671Z,0.9
2019-02-09T04:54:19.313Z,0.8
2019-02-09T04:56:18.616Z,0.9
2019-02-09T04:58:19.288Z,0.9
2019-02-09T05:00:18.980Z,0.4
2019-02-09T05:02:18.668Z,0.7
2019-02-09T05:04:19.336Z,0.7
2019-02-09T05:06:19.369Z,1
2019-02-09T05:08:19.033Z,0.9
2019-02-09T05:10:19.334Z,0.7
2019-02-09T05:12:18.723Z,1.3
2019-02-09T05:14:19.403Z,1
2019-02-09T05:16:18.731Z,0.9
2019-02-09T05:18:18.452Z,2.4
2019-02-09T05:20:19.196Z,1.9
2019-02-09T05:22:18.875Z,0.8
2019-02-09T05:24:18.546Z,0.7
2019-02-09T05:26:19.032Z,0.3
2019-02-09T05:28:18.695Z,0.9
2019-02-09T05:30:19.356Z,0.6
2019-02-09T05:32:19.054Z,0.7
2019-02-09T05:34:18.740Z,0.6
2019-02-09T05:36:19.149Z,0.7
2019-02-09T05:38:18.830Z,0.5
2019-02-09T05:40:19.132Z,0.5
2019-02-09T05:42:18.798Z,0.5
2019-02-09T05:44:18.476Z,0.5
2019-02-09T05:46:18.787Z,0.7
2019-02-09T05:48:18.450Z,0.5
2019-02-09T05:50:19.139Z,0.7
2019-02-09T05:52:18.789Z,0.6
2019-02-09T05:54:19.414Z,0.5
2019-02-09T05:56:18.855Z,0.6
2019-02-09T05:58:18.528Z,0.9
2019-02-09T06:00:19.192Z,0.6
2019-02-09T06:02:18.858Z,0.7
2019-02-09T06:04:18.540Z,0.7
2019-02-09T06:06:19.376Z,1.2
2019-02-09T06:08:19.059Z,0.7
2019-02-09T06:10:19.247Z,0.7
2019-02-09T06:12:18.945Z,0.6
2019-02-09T06:14:18.578Z,0.9
2019-02-09T06:16:18.551Z,1
2019-02-09T06:18:19.321Z,0.8
2019-02-09T06:20:19.015Z,0.7
2019-02-09T06:22:18.709Z,1
2019-02-09T06:24:19.386Z,0.7
2019-02-09T06:26:18.465Z,0.8
2019-02-09T06:28:19.157Z,0.7
2019-02-09T06:30:18.835Z,1
2019-02-09T06:32:18.484Z,0.8
2019-02-09T06:34:19.176Z,0.7
2019-02-09T06:36:18.582Z,0.8
2019-02-09T06:38:19.269Z,0.5
2019-02-09T06:40:19.411Z,0.6
2019-02-09T06:42:19.081Z,0.9
2019-02-09T06:44:18.747Z,0.7
2019-02-09T06:46:19.119Z,0.6
2019-02-09T06:48:18.764Z,0.6
2019-02-09T06:50:19.456Z,0.6
2019-02-09T06:52:19.134Z,0.6
2019-02-09T06:54:18.796Z,0.7
2019-02-09T06:56:19.192Z,0.7
2019-02-09T06:58:18.839Z,0.8
2019-02-09T07:00:18.507Z,0.9
2019-02-09T07:02:19.190Z,0.7
2019-02-09T07:04:18.877Z,0.5
2019-02-09T07:06:18.763Z,0.7
2019-02-09T07:08:19.422Z,0.8
2019-02-09T07:10:18.606Z,1
2019-02-09T07:12:19.298Z,0.8
2019-02-09T07:14:18.977Z,0.5
2019-02-09T07:16:19.273Z,0.8
2019-02-09T07:18:18.972Z,0.6
2019-02-09T07:20:18.645Z,0.5
2019-02-09T07:22:19.354Z,0.7
2019-02-09T07:24:19.067Z,0.6
2019-02-09T07:26:19.448Z,0.9
2019-02-09T07:28:19.116Z,0.4
2019-02-09T07:30:18.756Z,0.5
2019-02-09T07:32:19.422Z,0.4
2019-02-09T07:34:19.088Z,0.7
2019-02-09T07:36:19.404Z,0.4
2019-02-09T07:38:19.114Z,0.6
2019-02-09T07:40:19.261Z,0.7
2019-02-09T07:42:18.911Z,0.8
2019-02-09T07:44:18.566Z,1
2019-02-09T07:46:18.882Z,0.5
2019-02-09T07:48:18.563Z,0.4
2019-02-09T07:50:19.274Z,0.6
2019-02-09T07:52:18.970Z,0.9
2019-02-09T07:54:18.656Z,0.6
2019-02-09T07:56:18.563Z,0.6
2019-02-09T07:58:19.196Z,0.6
2019-02-09T08:00:18.864Z,0.5
2019-02-09T08:02:18.546Z,0.6
2019-02-09T08:04:19.242Z,0.5
2019-02-09T08:06:19.094Z,0.6
2019-02-09T08:08:18.743Z,0.9
2019-02-09T08:10:18.903Z,0.6
2019-02-09T08:12:18.607Z,0.6
2019-02-09T08:14:19.270Z,0.6
2019-02-09T08:16:18.612Z,0.6
2019-02-09T08:18:19.337Z,0.6
2019-02-09T08:20:19.054Z,0.6
2019-02-09T08:22:18.737Z,0.5
2019-02-09T08:24:19.390Z,0.8
2019-02-09T08:26:18.765Z,0.5
2019-02-09T08:28:19.464Z,0.3
2019-02-09T08:30:19.319Z,0.3
2019-02-09T08:32:18.984Z,0.6
2019-02-09T08:34:18.659Z,0.9
2019-02-09T08:36:18.485Z,0.6
2019-02-09T08:38:19.175Z,0.7
2019-02-09T08:40:19.401Z,0.5
2019-02-09T08:42:19.113Z,0.5
2019-02-09T08:44:18.794Z,0.3
2019-02-09T08:46:18.767Z,0.5
2019-02-09T08:48:19.429Z,0.5
2019-02-09T08:50:19.127Z,0.6
2019-02-09T08:52:18.811Z,0.7
2019-02-09T08:54:18.486Z,0.8
2019-02-09T08:56:18.821Z,0.5
2019-02-09T08:58:18.504Z,0.4
2019-02-09T09:00:19.188Z,0.4
2019-02-09T09:02:20.523Z,0.6
2019-02-09T09:04:18.517Z,0.4
2019-02-09T09:06:18.788Z,0.5
2019-02-09T09:08:19.448Z,0.6
2019-02-09T09:10:18.636Z,0.6
2019-02-09T09:12:19.310Z,0.3
2019-02-09T09:14:18.979Z,0.4
2019-02-09T09:16:18.826Z,0.7
2019-02-09T09:18:18.566Z,0.3
2019-02-09T09:20:19.250Z,0.7
2019-02-09T09:22:18.918Z,0.3
2019-02-09T09:24:18.574Z,0.5
2019-02-09T09:26:18.974Z,0.5
2019-02-09T09:28:18.632Z,1
2019-02-09T09:30:19.343Z,0.4
2019-02-09T09:32:19.050Z,0.7
2019-02-09T09:34:18.713Z,0.8
2019-02-09T09:36:19.020Z,0.5
2019-02-09T09:38:18.702Z,0.9
2019-02-09T09:40:18.843Z,0.5
2019-02-09T09:42:18.538Z,0.5
2019-02-09T09:44:19.211Z,0.4
2019-02-09T09:46:19.066Z,0.7
2019-02-09T09:48:18.730Z,0.3
2019-02-09T09:50:19.422Z,0.5
2019-02-09T09:52:19.148Z,0.7
2019-02-09T09:54:18.804Z,1.1
2019-02-09T09:56:19.258Z,0.5
2019-02-09T09:58:18.920Z,0.4
2019-02-09T10:00:18.611Z,0.4
2019-02-09T10:02:19.275Z,0.6
2019-02-09T10:04:18.979Z,0.5
2019-02-09T10:06:18.457Z,0.4
2019-02-09T10:08:19.093Z,0.3
2019-02-09T10:10:19.220Z,0.6
2019-02-09T10:12:18.885Z,0.8
2019-02-09T10:14:18.541Z,0.6
2019-02-09T10:16:18.530Z,0.5
2019-02-09T10:18:19.267Z,0.5
2019-02-09T10:20:18.935Z,0.2
2019-02-09T10:22:18.605Z,0.3
2019-02-09T10:24:19.293Z,0.4
2019-02-09T10:26:19.146Z,0.5
2019-02-09T10:28:18.838Z,0.3
2019-02-09T10:30:18.520Z,0.4
2019-02-09T10:32:19.166Z,0.5
2019-02-09T10:34:18.819Z,0.3
2019-02-09T10:36:18.641Z,0.3
2019-02-09T10:38:19.312Z,0.2
2019-02-09T10:40:19.425Z,0.2
2019-02-09T10:42:19.092Z,0.6
2019-02-09T10:44:18.740Z,0.2
2019-02-09T10:46:19.069Z,0.4
2019-02-09T10:48:18.738Z,0.3
2019-02-09T10:50:19.434Z,0.5
2019-02-09T10:52:19.184Z,0.3
2019-02-09T10:54:18.885Z,0.6
2019-02-09T10:56:19.186Z,0.3
2019-02-09T10:58:18.847Z,0.2
2019-02-09T11:00:18.556Z,0.3
2019-02-09T11:02:19.233Z,0.2
2019-02-09T11:04:18.885Z,0.3
2019-02-09T11:06:18.734Z,0.4
2019-02-09T11:08:19.407Z,0.1
2019-02-09T11:10:18.572Z,0.3
2019-02-09T11:12:19.272Z,0.3
2019-02-09T11:14:18.934Z,0.1
2019-02-09T11:16:18.778Z,0.4
2019-02-09T11:18:18.555Z,0.5
2019-02-09T11:20:19.233Z,0.6
2019-02-09T11:22:18.904Z,0.1
2019-02-09T11:24:18.545Z,0.3
2019-02-09T11:26:19.430Z,0.2
2019-02-09T11:28:19.113Z,0.5
2019-02-09T11:30:18.838Z,0.3
2019-02-09T11:32:18.572Z,0.3
2019-02-09T11:34:19.249Z,0.8
2019-02-09T11:36:19.128Z,0.5
2019-02-09T11:38:18.790Z,0.3
2019-02-09T11:40:18.992Z,0.3
2019-02-09T11:42:18.663Z,0.2
2019-02-09T11:44:19.324Z,0.4
2019-02-09T11:46:19.295Z,0.3
2019-02-09T11:48:18.979Z,0.4
2019-02-09T11:50:18.667Z,0.2
2019-02-09T11:52:19.357Z,0.6
2019-02-09T11:54:19.069Z,0.3
2019-02-09T11:56:18.765Z,0.1
2019-02-09T11:58:19.422Z,0.3
2019-02-09T12:00:19.164Z,0.5
2019-02-09T12:02:18.841Z,0.2
2019-02-09T12:04:18.499Z,0.9
2019-02-09T12:06:19.377Z,0.2
2019-02-09T12:08:19.057Z,0.2
2019-02-09T12:10:19.221Z,0.2
2019-02-09T12:12:18.894Z,0.2
2019-02-09T12:14:18.573Z,0.4
2019-02-09T12:16:19.426Z,0.2
2019-02-09T12:18:19.190Z,0.5
2019-02-09T12:20:18.894Z,0.4
2019-02-09T12:22:18.568Z,0.4
2019-02-09T12:24:19.215Z,0.3
2019-02-09T12:26:18.644Z,0.3
2019-02-09T12:28:19.330Z,0.1
2019-02-09T12:30:18.984Z,0.3
2019-02-09T12:32:18.655Z,0.5
2019-02-09T12:34:19.355Z,0.6
2019-02-09T12:36:18.760Z,0.1
2019-02-09T12:38:19.438Z,0.3
2019-02-09T12:40:18.588Z,0.1
2019-02-09T12:42:19.247Z,0.5
2019-02-09T12:44:18.903Z,0.1
2019-02-09T12:46:18.845Z,0.2
2019-02-09T12:48:18.522Z,0.4
2019-02-09T12:50:19.260Z,0.2
2019-02-09T12:52:18.953Z,0.2
2019-02-09T12:54:18.632Z,0.3
2019-02-09T12:56:18.528Z,0.2
2019-02-09T12:58:19.237Z,0.2
2019-02-09T13:00:18.933Z,0.3
2019-02-09T13:02:18.608Z,0.1
2019-02-09T13:04:19.285Z,0.1
2019-02-09T13:06:18.610Z,0.5
2019-02-09T13:08:19.298Z,0.2
2019-02-09T13:10:18.473Z,0.2
2019-02-09T13:12:19.137Z,0.3
2019-02-09T13:14:18.802Z,0.1
2019-02-09T13:16:19.117Z,0.1
2019-02-09T13:18:18.887Z,0.3
2019-02-09T13:20:18.565Z,0.3
2019-02-09T13:22:19.276Z,0.4
2019-02-09T13:24:18.953Z,0.2
2019-02-09T13:26:18.589Z,0.2
2019-02-09T13:28:19.251Z,0.3
2019-02-09T13:30:18.933Z,0.3
2019-02-09T13:32:18.583Z,0.3
2019-02-09T13:34:19.243Z,0.5
2019-02-09T13:36:19.155Z,0.4
2019-02-09T13:38:18.850Z,0.3
2019-02-09T13:40:19.163Z,0.2
2019-02-09T13:42:18.823Z,0.3
2019-02-09T13:44:18.496Z,0.2
2019-02-09T13:46:19.343Z,0.3
2019-02-09T13:48:19.032Z,0.2
2019-02-09T13:50:18.726Z,0.2
2019-02-09T13:52:19.402Z,0.2
2019-02-09T13:54:19.075Z,0.4
2019-02-09T13:56:18.963Z,0.3
2019-02-09T13:58:18.650Z,0.5
2019-02-09T14:00:19.331Z,0.2
2019-02-09T14:02:19.021Z,0.3
2019-02-09T14:04:18.693Z,0.3
2019-02-09T14:06:18.527Z,0.2
2019-02-09T14:08:19.194Z,0.4
2019-02-09T14:10:19.366Z,0.2
2019-02-09T14:12:19.016Z,0.3
2019-02-09T14:14:18.663Z,0.2
2019-02-09T14:16:19.089Z,0.3
2019-02-09T14:18:18.838Z,0.1
2019-02-09T14:20:18.526Z,0.2
2019-02-09T14:22:19.198Z,0.3
2019-02-09T14:24:18.835Z,0.3
2019-02-09T14:26:18.712Z,0.2
2019-02-09T14:28:19.417Z,0.2
2019-02-09T14:30:19.106Z,0.5
2019-02-09T14:32:18.787Z,0.5
2019-02-09T14:34:19.461Z,0.3
2019-02-09T14:36:18.818Z,0.3
2019-02-09T14:38:18.523Z,0.4
2019-02-09T14:40:18.705Z,0.3
2019-02-09T14:42:19.216Z,0.3
2019-02-09T14:44:18.879Z,0.3
2019-02-09T14:46:19.236Z,0.4
2019-02-09T14:48:18.909Z,0.7
2019-02-09T14:50:18.581Z,0.3
2019-02-09T14:52:19.246Z,0.3
2019-02-09T14:54:18.906Z,0.3
2019-02-09T14:56:18.834Z,0.3
2019-02-09T14:58:18.541Z,0.1
2019-02-09T15:00:19.232Z,0.4
2019-02-09T15:02:18.936Z,0.7
2019-02-09T15:04:18.615Z,0.2
2019-02-09T15:06:19.099Z,0.6
2019-02-09T15:08:18.773Z,0.6
2019-02-09T15:10:18.914Z,0.3
2019-02-09T15:12:19.437Z,0.3
2019-02-09T15:14:19.108Z,1
2019-02-09T15:16:19.015Z,0.7
2019-02-09T15:18:18.772Z,0.5
2019-02-09T15:20:19.484Z,1
2019-02-09T15:22:19.192Z,0.3
2019-02-09T15:24:18.869Z,0.5
2019-02-09T15:26:18.747Z,0.7
2019-02-09T15:28:19.443Z,0.4
2019-02-09T15:30:19.199Z,0.6
2019-02-09T15:32:18.883Z,0.8
2019-02-09T15:34:18.549Z,0.6
2019-02-09T15:36:19.405Z,0.6
2019-02-09T15:38:19.084Z,0.4
2019-02-09T15:40:19.353Z,0.5
2019-02-09T15:42:19.018Z,0.5
2019-02-09T15:44:18.703Z,0.6
2019-02-09T15:46:18.596Z,0.4
2019-02-09T15:48:19.273Z,0.5
2019-02-09T15:50:18.996Z,0.4
2019-02-09T15:52:18.665Z,0.2
2019-02-09T15:54:19.341Z,0.4
2019-02-09T15:56:18.714Z,0.4
2019-02-09T15:58:19.354Z,0.3
2019-02-09T16:00:19.039Z,0.5
2019-02-09T16:02:18.710Z,0.5
2019-02-09T16:04:19.398Z,0.2
2019-02-09T16:06:18.708Z,0.2
2019-02-09T16:08:19.407Z,0.4
2019-02-09T16:10:18.554Z,0.4
2019-02-09T16:12:19.216Z,0.5
2019-02-09T16:14:18.894Z,0.4
2019-02-09T16:16:19.245Z,0.5
2019-02-09T16:18:19.026Z,0.2
2019-02-09T16:20:18.906Z,0.3
2019-02-09T16:22:18.584Z,0.4
2019-02-09T16:24:19.269Z,0.7
2019-02-09T16:26:18.609Z,0.6
2019-02-09T16:28:19.261Z,0.5
2019-02-09T16:30:18.920Z,0.4
2019-02-09T16:32:18.598Z,0.6
2019-02-09T16:34:25.293Z,0.5
2019-02-09T16:36:19.256Z,0.7
2019-02-09T16:38:18.920Z,0.7
2019-02-09T16:40:19.160Z,0.7
2019-02-09T16:42:18.845Z,0.8
2019-02-09T16:44:18.544Z,0.9
2019-02-09T16:46:19.420Z,0.5
2019-02-09T16:48:19.091Z,0.3
2019-02-09T16:50:18.750Z,0.5
2019-02-09T16:52:19.448Z,0.7
2019-02-09T16:54:19.138Z,0.9
2019-02-09T16:56:18.461Z,1
2019-02-09T16:58:19.114Z,0.5
2019-02-09T17:00:18.835Z,1
2019-02-09T17:02:18.501Z,0.7
2019-02-09T17:04:19.167Z,0.7
2019-02-09T17:06:18.458Z,0.6
2019-02-09T17:08:19.133Z,1.1
2019-02-09T17:10:19.324Z,0.5
2019-02-09T17:12:19.005Z,0.7
2019-02-09T17:14:18.648Z,0.5
2019-02-09T17:16:19.072Z,1
2019-02-09T17:18:18.831Z,0.8
2019-02-09T17:20:18.536Z,1.7
2019-02-09T17:22:19.248Z,0.6
2019-02-09T17:24:18.906Z,1.4
2019-02-09T17:26:19.358Z,0.6
2019-02-09T17:28:19.045Z,0.7
2019-02-09T17:30:18.720Z,0.7
2019-02-09T17:32:19.405Z,0.7
2019-02-09T17:34:19.104Z,0.6
2019-02-09T17:36:19.033Z,0.5
2019-02-09T17:38:18.673Z,0.4
2019-02-09T17:40:18.830Z,0.4
2019-02-09T17:42:18.497Z,0.5
2019-02-09T17:44:19.141Z,0.6
2019-02-09T17:46:18.577Z,0.8
2019-02-09T17:48:19.239Z,0.6
2019-02-09T17:50:18.930Z,0.5
2019-02-09T17:52:19.318Z,0.4
2019-02-09T17:54:19.017Z,0.6
2019-02-09T17:56:19.371Z,0.4
2019-02-09T17:58:19.078Z,0.4
2019-02-09T18:00:18.770Z,0.5
2019-02-09T18:02:19.445Z,0.7
2019-02-09T18:04:19.163Z,0.6
2019-02-09T18:06:18.539Z,0.5
2019-02-09T18:08:19.192Z,0.4
2019-02-09T18:10:19.426Z,0.4
2019-02-09T18:12:19.103Z,0.7
2019-02-09T18:14:18.806Z,0.5
2019-02-09T18:16:19.101Z,1.1
2019-02-09T18:18:18.839Z,0.5
2019-02-09T18:20:18.535Z,0.7
2019-02-09T18:22:19.219Z,0.8
2019-02-09T18:24:18.889Z,0.5
2019-02-09T18:26:19.258Z,0.7
2019-02-09T18:28:18.926Z,0.9
2019-02-09T18:30:18.622Z,1.1
2019-02-09T18:32:19.277Z,1
2019-02-09T18:34:18.939Z,0.8
2019-02-09T18:36:18.939Z,1
2019-02-09T18:38:18.582Z,1.3
2019-02-09T18:40:18.742Z,0.7
2019-02-09T18:42:19.411Z,0.6
2019-02-09T18:44:19.099Z,0.3
2019-02-09T18:46:18.969Z,0.6
2019-02-09T18:48:18.626Z,0.6
2019-02-09T18:50:19.295Z,0.5
2019-02-09T18:52:18.973Z,0.7
2019-02-09T18:54:18.642Z,0.7
2019-02-09T18:56:18.962Z,1.4
2019-02-09T18:58:19.788Z,1
2019-02-09T19:00:18.573Z,0.7
2019-02-09T19:02:19.235Z,1.9
2019-02-09T19:04:18.900Z,0.9
2019-02-09T19:06:18.865Z,1.1
2019-02-09T19:08:18.634Z,0.9
2019-02-09T19:10:18.787Z,1
2019-02-09T19:12:19.431Z,1
2019-02-09T19:14:19.119Z,1.2
2019-02-09T19:16:18.639Z,0.7
2019-02-09T19:18:19.385Z,1.5
2019-02-09T19:20:19.055Z,1.5
2019-02-09T19:22:20.317Z,0.8
2019-02-09T19:24:19.195Z,0.9
2019-02-09T19:26:18.493Z,0.7
2019-02-09T19:28:19.183Z,1.1
2019-02-09T19:30:18.939Z,0.6
2019-02-09T19:32:18.885Z,0.8
2019-02-09T19:34:18.529Z,0.8
2019-02-09T19:36:18.814Z,0.7
2019-02-09T19:38:18.489Z,0.4
2019-02-09T19:40:18.655Z,0.3
2019-02-09T19:42:19.334Z,0.6
2019-02-09T19:44:19.029Z,0.6
2019-02-09T19:46:18.858Z,0.7
2019-02-09T19:48:18.538Z,0.4
2019-02-09T19:50:19.228Z,0.3
2019-02-09T19:52:18.901Z,0.7
2019-02-09T19:54:18.573Z,0.6
2019-02-09T19:56:18.944Z,0.8
2019-02-09T19:58:18.593Z,0.7
2019-02-09T20:00:19.271Z,0.5
2019-02-09T20:02:18.917Z,0.3
2019-02-09T20:04:18.581Z,0.4
2019-02-09T20:06:18.874Z,0.8
2019-02-09T20:08:18.549Z,0.6
2019-02-09T20:10:18.691Z,0.7
2019-02-09T20:12:19.406Z,0.6
2019-02-09T20:14:19.089Z,0.1
2019-02-09T20:16:19.109Z,0.5
2019-02-09T20:18:18.838Z,0.4
2019-02-09T20:20:18.486Z,0.8
2019-02-09T20:22:19.149Z,0.3
2019-02-09T20:24:18.815Z,0.4
2019-02-09T20:26:19.225Z,0.6
2019-02-09T20:28:18.918Z,0.4
2019-02-09T20:30:18.586Z,0.7
2019-02-09T20:32:19.266Z,0.8
2019-02-09T20:34:18.902Z,0.5
2019-02-09T20:36:19.214Z,0.3
2019-02-09T20:38:18.855Z,0.3
2019-02-09T20:40:18.999Z,0.9
2019-02-09T20:42:18.654Z,0.3
2019-02-09T20:44:19.341Z,0.6
2019-02-09T20:46:18.627Z,0.5
2019-02-09T20:48:19.324Z,1
2019-02-09T20:50:19.021Z,0.6
2019-02-09T20:52:18.704Z,0.8
2019-02-09T20:54:19.437Z,0.4
2019-02-09T20:56:18.768Z,0.8
2019-02-09T20:58:19.435Z,0.4
2019-02-09T21:00:19.103Z,0.5
2019-02-09T21:02:18.768Z,0.2
2019-02-09T21:04:19.432Z,0.5
2019-02-09T21:06:19.272Z,0.3
2019-02-09T21:08:18.946Z,0.5
2019-02-09T21:10:19.155Z,1
2019-02-09T21:12:18.847Z,0.7
2019-02-09T21:14:18.496Z,0.6
2019-02-09T21:16:19.065Z,0.4
2019-02-09T21:18:18.832Z,0.8
2019-02-09T21:20:18.494Z,0.4
2019-02-09T21:22:19.161Z,0.6
2019-02-09T21:24:18.828Z,0.5
2019-02-09T21:26:18.687Z,0.4
2019-02-09T21:28:19.385Z,0.9
2019-02-09T21:30:19.091Z,0.5
2019-02-09T21:32:18.776Z,0.6
2019-02-09T21:34:18.477Z,0.5
2019-02-09T21:36:18.851Z,0.8
2019-02-09T21:38:18.542Z,0.9
2019-02-09T21:40:18.692Z,0.6
2019-02-09T21:42:19.370Z,0.7
2019-02-09T21:44:19.076Z,0.3
2019-02-09T21:46:18.471Z,0.8
2019-02-09T21:48:19.134Z,0.4
2019-02-09T21:50:18.812Z,0.4
2019-02-09T21:52:18.444Z,0.7
2019-02-09T21:54:19.096Z,0.6
2019-02-09T21:56:18.449Z,0.7
2019-02-09T21:58:19.087Z,0.6
2019-02-09T22:00:18.748Z,0.9
2019-02-09T22:02:19.419Z,1.2
2019-02-09T22:04:19.097Z,0.5
2019-02-09T22:06:19.146Z,0.5
2019-02-09T22:08:19.833Z,0.8
2019-02-09T22:10:19.241Z,0.5
2019-02-09T22:12:19.008Z,0.5
2019-02-09T22:14:18.894Z,0.5
2019-02-09T22:16:18.481Z,0.6
2019-02-09T22:18:19.207Z,0.7
2019-02-09T22:20:18.899Z,0.6
2019-02-09T22:22:18.581Z,1
2019-02-09T22:24:19.226Z,0.6
2019-02-09T22:26:18.717Z,1.1
2019-02-09T22:28:18.489Z,0.8
2019-02-09T22:30:19.216Z,0.4
2019-02-09T22:32:18.893Z,1
2019-02-09T22:34:18.574Z,0.5
2019-02-09T22:36:18.853Z,0.5
2019-02-09T22:38:18.508Z,0.8
2019-02-09T22:40:18.723Z,0.5
2019-02-09T22:42:18.554Z,0.7
2019-02-09T22:44:19.223Z,0.5
2019-02-09T22:46:19.057Z,0.7
2019-02-09T22:48:18.703Z,0.4
2019-02-09T22:50:19.509Z,1
2019-02-09T22:52:19.174Z,0.7
2019-02-09T22:54:18.832Z,0.3
2019-02-09T22:56:19.333Z,0.4
2019-02-09T22:58:18.974Z,0.6
2019-02-09T23:00:18.757Z,0.7
2019-02-09T23:02:19.417Z,0.5
2019-02-09T23:04:19.090Z,0.8
2019-02-09T23:06:19.396Z,0.6
2019-02-09T23:08:19.102Z,0.8
2019-02-09T23:10:19.235Z,0.7
2019-02-09T23:12:18.930Z,0.5
2019-02-09T23:14:18.609Z,0.7
2019-02-09T23:16:18.465Z,0.5
2019-02-09T23:18:19.227Z,0.6
2019-02-09T23:20:18.906Z,0.8
2019-02-09T23:22:18.580Z,0.6
2019-02-09T23:24:19.232Z,1.2
2019-02-09T23:26:18.596Z,0.6
2019-02-09T23:28:19.263Z,0.5
2019-02-09T23:30:18.922Z,1
2019-02-09T23:32:18.616Z,0.9
2019-02-09T23:34:19.307Z,0.5
2019-02-09T23:36:19.260Z,0.9
2019-02-09T23:38:18.913Z,0.9
2019-02-09T23:40:19.074Z,0.4
2019-02-09T23:42:18.743Z,1.1
2019-02-09T23:44:19.407Z,1.2
2019-02-09T23:46:18.695Z,0.6
2019-02-09T23:48:19.331Z,1.3
2019-02-09T23:50:18.978Z,0.9
2019-02-09T23:52:18.640Z,0.8
2019-02-09T23:54:19.291Z,0.9
2019-02-09T23:56:19.154Z,1
2019-02-09T23:58:18.825Z,0.6
